ADDS METAR Data INFO
IDs: Format: Raw Decoded Include TAF

Data at: 1244 UTC 19 Oct 2017

METAR for:TKPK (St Kitts/Bradshaw In, --, AT)
Text:TKPK 191200Z 09010KT 7000 FEW019 28/23 Q1017
Temperature: 28.0°C ( 82°F)
Dewpoint: 23.0°C ( 73°F) [RH = 74%]
Pressure (altimeter):30.03 inches Hg (1017.0 mb)
Winds:from the E (90 degrees) at 12 MPH (10 knots; 5.1 m/s)
Visibility: 4 sm ( 7 km)
Ceiling:at least 12,000 feet AGL
Clouds: few clouds at 1900 feet AGL